Time;durP1;ratioP1;P1;durP2;ratioP2;P2;SDS_P1;SDS_P2;PMS_P1;PMS_P2;Temp;Humidity;BMP_temperature;BMP_pressure;BME280_temperature;BME280_humidity;BME280_pressure;Samples;Min_cycle;Max_cycle;Signal;HPM_P1;HPM_P2
2022/06/11 00:01:31;;;;;;;4.15;3.90;;;18.10;97.30;;;;;;5071341;28;20214;-71
2022/06/11 00:04:02;;;;;;;4.63;4.22;;;18.20;97.10;;;;;;5071024;28;20190;-72
2022/06/11 00:06:30;;;;;;;5.78;4.72;;;18.20;96.90;;;;;;5076570;28;20182;-72
2022/06/11 00:08:57;;;;;;;4.85;4.05;;;18.20;96.80;;;;;;5072715;28;20265;-73
2022/06/11 00:11:23;;;;;;;4.85;4.45;;;18.10;96.60;;;;;;5071712;28;20214;-72
2022/06/11 00:13:50;;;;;;;6.05;5.50;;;18.20;97.10;;;;;;5072114;28;20215;-72
2022/06/11 00:16:18;;;;;;;5.07;4.63;;;18.20;97.10;;;;;;5072651;28;20198;-72
2022/06/11 00:18:45;;;;;;;4.70;4.32;;;18.20;96.80;;;;;;5074781;28;20210;-72
2022/06/11 00:21:13;;;;;;;5.28;4.55;;;18.20;97.10;;;;;;5069684;28;20191;-72
2022/06/11 00:23:40;;;;;;;4.20;3.80;;;18.20;96.90;;;;;;5063731;28;20179;-72
2022/06/11 00:26:07;;;;;;;4.78;4.38;;;18.20;97.00;;;;;;5057814;28;20644;-73
2022/06/11 00:28:34;;;;;;;7.10;5.55;;;18.20;96.90;;;;;;5074073;28;20615;-72
2022/06/11 00:31:00;;;;;;;4.90;4.50;;;18.20;97.00;;;;;;5069053;28;20191;-72
2022/06/11 00:33:26;;;;;;;4.30;4.00;;;18.10;96.60;;;;;;5078898;28;20985;-73
2022/06/11 00:35:52;;;;;;;4.15;3.85;;;18.10;96.60;;;;;;5065407;28;20231;-73
2022/06/11 00:38:20;;;;;;;4.30;4.00;;;18.10;96.70;;;;;;5074611;28;20194;-73
2022/06/11 00:40:47;;;;;;;5.00;4.53;;;18.10;96.40;;;;;;5076012;28;20232;-73
2022/06/11 00:43:16;;;;;;;4.97;4.50;;;18.10;96.50;;;;;;5076961;28;21014;-73
2022/06/11 00:45:41;;;;;;;4.95;4.40;;;18.10;96.10;;;;;;5069409;28;20178;-73
2022/06/11 00:48:13;;;;;;;5.07;4.57;;;18.10;96.10;;;;;;5073508;28;20193;-73
2022/06/11 00:50:41;;;;;;;3.45;3.15;;;18.00;96.00;;;;;;5072659;28;20323;-72
2022/06/11 00:53:36;;;;;;;5.68;4.55;;;18.10;96.30;;;;;;5068576;28;20264;-72
2022/06/11 00:56:05;;;;;;;3.30;3.13;;;18.00;95.80;;;;;;5074967;28;20234;-72
2022/06/11 00:58:37;;;;;;;4.35;4.05;;;18.10;96.30;;;;;;5064074;28;20174;-73
2022/06/11 01:01:04;;;;;;;4.10;3.80;;;18.00;96.60;;;;;;5073010;28;20190;-73
2022/06/11 01:03:33;;;;;;;4.05;3.85;;;18.10;96.50;;;;;;5074761;28;20187;-73
2022/06/11 01:06:29;;;;;;;4.15;3.75;;;18.10;95.90;;;;;;5074986;28;20584;-72
2022/06/11 01:09:10;;;;;;;3.35;3.15;;;18.00;95.70;;;;;;5071557;28;20202;-73
2022/06/11 01:11:50;;;;;;;4.38;4.07;;;18.00;95.80;;;;;;5064000;28;20297;-72
2022/06/11 01:14:50;;;;;;;3.47;3.28;;;18.00;96.00;;;;;;5070317;28;20217;-71
2022/06/11 01:17:19;;;;;;;7.22;3.78;;;18.00;95.60;;;;;;5056028;28;20197;-72
2022/06/11 01:20:15;;;;;;;3.92;3.63;;;18.00;95.70;;;;;;5058017;28;20281;-72
2022/06/11 01:23:14;;;;;;;3.85;3.65;;;18.00;95.00;;;;;;5071433;28;20253;-71
2022/06/11 01:25:42;;;;;;;3.95;3.65;;;18.00;94.90;;;;;;5070359;28;20183;-73
2022/06/11 01:28:33;;;;;;;4.55;2.72;;;18.00;95.30;;;;;;5055190;28;20183;-73
2022/06/11 01:31:33;;;;;;;3.80;3.50;;;18.00;94.80;;;;;;5072138;28;20186;-73
2022/06/11 01:34:16;;;;;;;3.97;3.20;;;18.00;95.20;;;;;;5036892;28;20227;-73
2022/06/11 01:36:45;;;;;;;3.42;3.22;;;18.00;95.00;;;;;;5036755;28;20183;-72
2022/06/11 01:39:30;;;;;;;4.15;3.92;;;18.10;96.50;;;;;;5038327;28;20673;-73
2022/06/11 01:42:12;;;;;;;4.13;3.83;;;18.10;95.40;;;;;;5023483;28;20238;-71
2022/06/11 01:44:42;;;;;;;3.35;3.15;;;18.10;95.40;;;;;;5034811;28;20196;-71
2022/06/11 01:47:10;;;;;;;3.67;3.38;;;18.00;95.20;;;;;;5038419;28;20238;-72
2022/06/11 01:49:45;;;;;;;3.83;3.63;;;18.00;95.30;;;;;;5038193;28;20194;-71
2022/06/11 01:52:28;;;;;;;5.10;4.60;;;18.10;95.00;;;;;;5036716;28;20226;-72
2022/06/11 01:55:23;;;;;;;4.13;3.83;;;18.10;94.90;;;;;;5037673;28;20222;-73
2022/06/11 01:58:04;;;;;;;4.22;3.83;;;18.10;94.90;;;;;;5017281;28;20746;-73
2022/06/11 02:00:33;;;;;;;5.88;3.85;;;18.10;95.70;;;;;;5040220;28;20258;-72
2022/06/11 02:03:27;;;;;;;4.03;3.83;;;18.00;95.50;;;;;;5031800;28;20216;-72
2022/06/11 02:06:15;;;;;;;4.05;3.28;;;18.00;96.20;;;;;;5039432;28;20180;-72
2022/06/11 02:08:59;;;;;;;2.88;2.78;;;18.00;95.70;;;;;;5036410;28;20180;-72
2022/06/11 02:11:59;;;;;;;3.17;2.97;;;18.00;96.20;;;;;;5066155;28;20558;-73
2022/06/11 02:14:36;;;;;;;3.38;3.08;;;18.00;95.30;;;;;;5069238;28;20301;-73
2022/06/11 02:17:15;;;;;;;3.38;3.17;;;18.00;95.80;;;;;;5068719;28;20898;-72
2022/06/11 02:19:57;;;;;;;4.68;3.13;;;17.90;96.10;;;;;;5072559;28;20189;-73
2022/06/11 02:22:34;;;;;;;4.25;3.00;;;18.00;96.90;;;;;;5071716;28;20217;-73
2022/06/11 02:25:08;;;;;;;2.70;2.50;;;17.90;95.80;;;;;;5076953;28;20183;-73
2022/06/11 02:27:36;;;;;;;2.40;2.30;;;17.90;96.30;;;;;;5071301;28;20208;-73
2022/06/11 02:30:06;;;;;;;2.55;2.45;;;17.90;97.40;;;;;;5077243;28;20187;-72
2022/06/11 02:32:32;;;;;;;2.75;2.65;;;17.90;96.80;;;;;;5072033;28;20273;-73
2022/06/11 02:35:01;;;;;;;2.42;2.22;;;17.90;97.50;;;;;;5073178;28;20222;-73
2022/06/11 02:37:32;;;;;;;3.25;3.05;;;17.90;97.20;;;;;;5069692;28;20194;-73
2022/06/11 02:40:05;;;;;;;1.95;1.95;;;17.80;96.80;;;;;;5074272;28;20191;-73
2022/06/11 02:42:31;;;;;;;3.30;2.60;;;17.80;96.30;;;;;;5075641;28;20257;-73
2022/06/11 02:44:57;;;;;;;3.33;2.33;;;17.70;96.50;;;;;;5069902;28;20212;-72
2022/06/11 02:47:23;;;;;;;2.58;2.42;;;17.70;96.60;;;;;;5076839;28;20175;-72
2022/06/11 02:49:50;;;;;;;2.85;2.75;;;17.70;97.00;;;;;;5072268;28;20175;-73
2022/06/11 02:52:20;;;;;;;4.63;2.13;;;17.70;97.00;;;;;;5078617;28;20204;-73
2022/06/11 02:54:49;;;;;;;2.78;2.58;;;17.80;97.20;;;;;;5071695;28;20275;-73
2022/06/11 02:57:17;;;;;;;3.30;2.72;;;17.80;97.20;;;;;;5082510;28;20183;-73
2022/06/11 02:59:45;;;;;;;3.15;2.17;;;17.70;96.60;;;;;;5072601;28;20185;-73
2022/06/11 03:02:11;;;;;;;2.38;2.28;;;17.70;96.40;;;;;;5068064;28;20210;-73
2022/06/11 03:04:38;;;;;;;2.28;2.17;;;17.70;96.40;;;;;;5075689;28;20198;-73
2022/06/11 03:07:04;;;;;;;2.70;2.50;;;17.70;96.30;;;;;;5075339;28;20189;-72
2022/06/11 03:09:33;;;;;;;2.70;2.60;;;17.70;96.40;;;;;;5073663;28;20193;-73
2022/06/11 03:12:01;;;;;;;2.63;2.47;;;17.70;96.20;;;;;;5072772;28;20261;-73
2022/06/11 03:14:27;;;;;;;2.75;2.60;;;17.70;96.30;;;;;;5070404;28;20211;-74
2022/06/11 03:16:53;;;;;;;2.55;2.35;;;17.70;96.10;;;;;;5072578;28;20645;-72
2022/06/11 03:19:20;;;;;;;3.35;2.45;;;17.70;95.90;;;;;;5074124;28;20193;-73
2022/06/11 03:21:47;;;;;;;2.28;2.17;;;17.70;95.70;;;;;;5067728;28;20265;-72
2022/06/11 03:24:13;;;;;;;2.58;2.38;;;17.70;95.70;;;;;;5071543;28;21688;-73
2022/06/11 03:26:39;;;;;;;2.78;2.47;;;17.70;95.70;;;;;;5068384;28;20218;-72
2022/06/11 03:29:06;;;;;;;2.47;2.38;;;17.70;95.90;;;;;;5070265;28;20215;-73
2022/06/11 03:31:32;;;;;;;3.80;2.78;;;17.70;95.80;;;;;;5076817;28;20178;-72
2022/06/11 03:33:58;;;;;;;1.77;1.77;;;17.70;95.60;;;;;;5060169;28;20279;-73
2022/06/11 03:36:24;;;;;;;2.72;2.63;;;17.80;95.80;;;;;;5073548;28;20265;-72
2022/06/11 03:38:50;;;;;;;2.55;2.47;;;17.80;95.90;;;;;;5077514;28;20183;-73
2022/06/11 03:41:17;;;;;;;2.63;2.42;;;17.80;95.80;;;;;;5072932;28;20237;-72
2022/06/11 03:43:43;;;;;;;2.70;2.60;;;17.80;96.00;;;;;;5072470;28;20183;-73
2022/06/11 03:46:09;;;;;;;2.47;2.38;;;17.80;95.70;;;;;;5066821;28;20192;-73
2022/06/11 03:48:37;;;;;;;2.50;2.40;;;17.80;95.50;;;;;;5066831;28;20585;-73
2022/06/11 03:51:04;;;;;;;2.83;2.55;;;17.80;95.40;;;;;;5073283;28;20210;-73
2022/06/11 03:53:30;;;;;;;3.08;2.67;;;17.90;95.90;;;;;;5071202;28;20210;-73
2022/06/11 03:55:56;;;;;;;3.67;3.38;;;17.90;95.80;;;;;;5073032;28;20190;-72
2022/06/11 03:58:22;;;;;;;2.83;2.63;;;17.90;95.70;;;;;;5074623;28;20179;-73
2022/06/11 04:03:34;;;;;;;2.60;2.40;;;18.00;95.60;;;;;;5071992;28;20606;-73
2022/06/11 04:06:01;;;;;;;2.65;2.53;;;18.00;95.60;;;;;;5069376;28;20171;-72
2022/06/11 04:08:28;;;;;;;4.03;2.88;;;18.10;95.70;;;;;;5071486;28;20573;-73
2022/06/11 04:10:56;;;;;;;2.30;2.20;;;18.10;95.60;;;;;;5074951;28;20865;-73
2022/06/11 04:13:23;;;;;;;2.63;2.35;;;18.10;95.50;;;;;;5075874;28;20210;-72
2022/06/11 04:15:50;;;;;;;2.42;2.33;;;18.20;95.60;;;;;;5071037;28;20221;-72
2022/06/11 04:18:34;;;;;;;2.42;2.20;;;18.20;95.90;;;;;;5068939;28;20575;-72
2022/06/11 04:21:02;;;;;;;2.42;2.33;;;18.20;95.30;;;;;;5070093;28;20722;-72
2022/06/11 04:23:29;;;;;;;1.70;1.60;;;18.30;95.60;;;;;;5070587;28;20179;-73
2022/06/11 04:25:58;;;;;;;2.30;2.20;;;18.30;96.50;;;;;;5069235;28;20181;-72
2022/06/11 04:28:25;;;;;;;1.90;1.80;;;18.30;95.60;;;;;;5070014;28;20286;-72
2022/06/11 04:30:50;;;;;;;1.63;1.52;;;18.30;95.50;;;;;;5074348;28;20877;-73
2022/06/11 04:33:16;;;;;;;1.95;1.15;;;18.40;95.70;;;;;;5066640;28;20299;-72
2022/06/11 04:35:42;;;;;;;1.50;1.40;;;18.40;95.80;;;;;;5066232;28;20713;-73
2022/06/11 04:38:07;;;;;;;1.50;1.50;;;18.40;95.90;;;;;;5068906;28;20656;-72
2022/06/11 04:40:33;;;;;;;1.50;1.50;;;18.40;95.60;;;;;;5066284;28;20929;-72
2022/06/11 04:42:59;;;;;;;1.20;1.20;;;18.40;95.60;;;;;;5069845;28;20221;-72
2022/06/11 04:45:24;;;;;;;1.25;1.23;;;18.40;95.70;;;;;;5062832;28;20187;-72
2022/06/11 04:47:50;;;;;;;1.40;1.40;;;18.40;95.60;;;;;;5066597;28;20198;-72
2022/06/11 04:50:18;;;;;;;3.33;1.27;;;18.40;96.20;;;;;;5070379;28;20193;-72
2022/06/11 04:52:44;;;;;;;2.20;1.83;;;18.40;96.10;;;;;;5072897;28;20187;-71
2022/06/11 04:55:10;;;;;;;3.00;1.70;;;18.40;95.60;;;;;;5062686;28;20268;-71
2022/06/11 04:57:36;;;;;;;1.63;1.55;;;18.40;95.50;;;;;;5065398;28;20182;-72
2022/06/11 05:00:04;;;;;;;1.67;1.63;;;18.50;95.50;;;;;;5055657;28;20266;-72
2022/06/11 05:02:29;;;;;;;3.78;1.58;;;18.40;95.50;;;;;;5068193;28;20190;-72
2022/06/11 05:04:55;;;;;;;2.35;2.15;;;;;;;;;;5054106;28;20189;-72
2022/06/11 05:07:22;;;;;;;2.45;2.25;;;18.50;95.40;;;;;;5071373;28;20183;-74
2022/06/11 05:09:49;;;;;;;2.30;2.17;;;18.50;95.50;;;;;;5068237;28;20179;-73
2022/06/11 05:12:15;;;;;;;2.55;2.38;;;18.40;95.20;;;;;;5070497;28;20213;-73
2022/06/11 05:14:41;;;;;;;2.22;1.95;;;18.50;95.30;;;;;;5067543;28;20340;-73
2022/06/11 05:17:08;;;;;;;2.45;2.08;;;18.50;95.20;;;;;;5060031;28;20186;-72
2022/06/11 05:19:34;;;;;;;2.65;2.55;;;18.50;95.20;;;;;;5066173;28;20182;-72
2022/06/11 05:22:02;;;;;;;2.30;2.20;;;18.50;95.40;;;;;;5060647;28;20649;-72
2022/06/11 05:24:29;;;;;;;1.65;1.65;;;18.50;95.20;;;;;;5064765;28;20183;-73
2022/06/11 05:27:03;;;;;;;2.13;1.92;;;18.60;95.30;;;;;;5069707;28;20922;-73
2022/06/11 05:29:48;;;;;;;2.03;1.90;;;18.60;94.90;;;;;;5064936;28;20270;-73
2022/06/11 05:32:16;;;;;;;1.70;1.67;;;18.60;95.70;;;;;;5069212;28;20202;-74
2022/06/11 05:34:42;;;;;;;1.95;1.85;;;18.60;95.30;;;;;;5069338;28;20216;-74
2022/06/11 05:37:09;;;;;;;1.67;1.58;;;18.70;95.30;;;;;;5051687;28;20645;-74
2022/06/11 05:39:34;;;;;;;3.13;1.70;;;18.70;95.40;;;;;;5065929;28;20189;-73
2022/06/11 05:42:00;;;;;;;1.40;1.30;;;18.80;95.50;;;;;;5068183;28;20187;-74
2022/06/11 05:44:26;;;;;;;1.05;1.05;;;18.80;95.40;;;;;;5068409;28;20191;-73
2022/06/11 05:46:53;;;;;;;1.00;1.00;;;18.90;95.20;;;;;;5063215;28;20179;-73
2022/06/11 05:49:25;;;;;;;0.90;0.90;;;18.90;95.10;;;;;;5070801;28;20809;-74
2022/06/11 05:51:55;;;;;;;0.90;0.88;;;18.90;95.00;;;;;;5070593;28;20189;-74
2022/06/11 05:54:24;;;;;;;1.35;1.35;;;18.90;95.10;;;;;;5067810;28;20637;-73
2022/06/11 05:56:50;;;;;;;2.15;0.88;;;18.90;95.30;;;;;;5072750;28;20198;-74
2022/06/11 05:59:21;;;;;;;0.95;0.95;;;19.00;95.70;;;;;;5074440;28;20631;-73
2022/06/11 06:01:48;;;;;;;1.17;1.17;;;19.00;95.20;;;;;;5073154;28;20194;-73
2022/06/11 06:04:13;;;;;;;1.15;1.15;;;18.90;94.70;;;;;;5070995;28;21036;-74
2022/06/11 06:06:39;;;;;;;1.10;1.10;;;19.00;95.70;;;;;;5074108;28;20261;-74
2022/06/11 06:09:06;;;;;;;3.00;1.60;;;19.10;95.00;;;;;;5074325;28;20190;-73
2022/06/11 06:11:32;;;;;;;1.05;1.05;;;19.20;94.20;;;;;;5073015;28;20540;-73
2022/06/11 06:13:58;;;;;;;1.13;1.13;;;19.20;93.50;;;;;;5081200;28;20221;-73
2022/06/11 06:16:26;;;;;;;1.10;1.10;;;19.10;93.50;;;;;;5068231;28;20667;-74
2022/06/11 06:18:53;;;;;;;1.40;1.40;;;19.10;93.20;;;;;;5075681;28;20186;-74
2022/06/11 06:21:22;;;;;;;1.48;1.35;;;19.10;93.60;;;;;;5078511;28;20167;-73
2022/06/11 06:23:48;;;;;;;1.65;1.55;;;19.00;93.40;;;;;;5074666;28;20190;-73
2022/06/11 06:26:14;;;;;;;1.20;1.20;;;19.00;93.60;;;;;;5073926;28;20647;-73
2022/06/11 06:28:41;;;;;;;1.17;1.17;;;18.80;94.10;;;;;;5073059;28;20287;-74
2022/06/11 06:31:08;;;;;;;1.38;1.38;;;18.80;94.00;;;;;;5068826;28;20178;-74
2022/06/11 06:33:35;;;;;;;1.75;1.55;;;18.80;94.10;;;;;;5070914;28;21044;-73
2022/06/11 06:36:02;;;;;;;1.92;1.83;;;18.90;94.40;;;;;;5071360;28;20175;-73
2022/06/11 06:38:28;;;;;;;1.75;1.65;;;18.90;94.50;;;;;;5055955;28;20175;-74
2022/06/11 06:40:54;;;;;;;1.45;1.35;;;19.00;94.50;;;;;;5075873;28;20270;-74
2022/06/11 06:43:20;;;;;;;1.55;1.55;;;19.00;94.70;;;;;;5076456;28;20190;-73
2022/06/11 06:45:47;;;;;;;2.05;1.95;;;19.00;94.80;;;;;;5076653;28;20186;-72
2022/06/11 06:48:13;;;;;;;1.70;1.60;;;19.10;94.40;;;;;;5073183;28;20187;-75
2022/06/11 06:50:39;;;;;;;1.55;1.45;;;19.10;94.60;;;;;;5070065;28;20268;-72
2022/06/11 06:53:06;;;;;;;1.25;1.15;;;19.10;94.60;;;;;;5071032;28;20658;-74
2022/06/11 07:08:30;;;;;;;1.58;1.58;;;19.50;95.70;;;;;;4779808;22;20426;-75
2022/06/11 07:10:55;;;;;;;1.38;1.38;;;19.50;95.30;;;;;;5039247;28;20261;-75
2022/06/11 07:13:22;;;;;;;1.02;1.02;;;19.60;94.90;;;;;;5039263;28;20199;-75
2022/06/11 07:15:52;;;;;;;1.00;1.00;;;19.70;93.90;;;;;;5044221;28;20287;-76
2022/06/11 07:18:24;;;;;;;1.55;1.20;;;19.80;93.60;;;;;;5042679;28;20176;-75
2022/06/11 07:20:52;;;;;;;1.10;1.10;;;19.90;92.70;;;;;;5038913;28;20179;-76
2022/06/11 07:23:24;;;;;;;1.50;1.40;;;20.00;92.60;;;;;;5038694;28;20285;-76
2022/06/11 07:25:53;;;;;;;1.33;1.33;;;20.00;92.60;;;;;;5044347;28;20219;-76
2022/06/11 07:28:23;;;;;;;1.40;1.40;;;20.10;92.80;;;;;;5045009;28;20187;-75
2022/06/11 07:30:49;;;;;;;1.05;1.05;;;20.20;93.70;;;;;;5043010;28;20188;-74
2022/06/11 07:33:20;;;;;;;1.38;1.38;;;20.20;92.80;;;;;;5043229;28;20208;-75
2022/06/11 07:35:48;;;;;;;1.05;1.05;;;20.20;91.90;;;;;;5043352;28;20192;-75
2022/06/11 07:38:14;;;;;;;1.10;1.10;;;20.30;92.30;;;;;;5043420;28;20188;-75
2022/06/11 07:40:41;;;;;;;1.15;1.15;;;20.40;91.70;;;;;;5044640;28;20210;-74
2022/06/11 07:43:07;;;;;;;1.60;1.50;;;20.30;91.30;;;;;;5042405;28;20176;-74
2022/06/11 07:45:37;;;;;;;1.00;1.00;;;20.30;91.30;;;;;;5041982;28;20183;-76
2022/06/11 07:48:03;;;;;;;13.20;1.50;;;20.30;92.10;;;;;;5044917;28;20182;-74
2022/06/11 07:50:50;;;;;;;1.33;1.23;;;20.30;92.30;;;;;;5044472;28;20271;-74
2022/06/11 07:53:20;;;;;;;1.23;1.23;;;20.30;92.20;;;;;;5041755;28;20218;-74
2022/06/11 07:55:48;;;;;;;1.25;1.25;;;20.40;92.30;;;;;;5045417;28;20708;-74
2022/06/11 07:58:16;;;;;;;1.30;1.23;;;20.40;92.30;;;;;;5044344;28;20188;-74
2022/06/11 08:00:45;;;;;;;1.20;1.20;;;20.50;93.00;;;;;;5043946;28;20258;-74
2022/06/11 08:03:11;;;;;;;1.33;1.25;;;20.60;91.70;;;;;;5042441;28;20244;-75
2022/06/11 08:05:38;;;;;;;1.40;1.40;;;20.70;91.30;;;;;;5041130;28;20191;-74
2022/06/11 08:08:07;;;;;;;1.40;1.30;;;20.90;92.00;;;;;;5043890;28;20188;-75
2022/06/11 08:10:33;;;;;;;1.77;1.67;;;21.10;92.20;;;;;;5041205;28;20192;-74
2022/06/11 08:12:59;;;;;;;1.50;1.38;;;21.30;91.50;;;;;;5043338;28;20191;-73
2022/06/11 08:15:26;;;;;;;1.63;1.60;;;21.60;91.20;;;;;;5042856;28;20183;-75
2022/06/11 08:17:52;;;;;;;1.45;1.35;;;21.80;91.60;;;;;;5036012;28;20328;-77
2022/06/11 08:20:22;;;;;;;1.55;1.55;;;22.00;88.80;;;;;;5024034;28;20196;-78
2022/06/11 08:22:48;;;;;;;1.10;1.10;;;22.20;88.40;;;;;;5026397;28;20637;-76
2022/06/11 08:25:14;;;;;;;1.48;1.35;;;22.40;88.40;;;;;;5040746;28;20184;-77
2022/06/11 08:27:40;;;;;;;0.93;0.93;;;22.60;88.80;;;;;;5040507;28;20172;-74
2022/06/11 08:30:06;;;;;;;1.25;1.25;;;22.70;86.10;;;;;;5038057;28;20589;-72
2022/06/11 08:32:32;;;;;;;0.93;0.93;;;23.00;85.20;;;;;;5039267;28;20302;-73
2022/06/11 08:34:57;;;;;;;0.98;0.98;;;23.10;85.30;;;;;;5040100;28;20778;-75
2022/06/11 08:37:23;;;;;;;1.67;1.60;;;23.40;84.40;;;;;;5042020;28;20664;-75
2022/06/11 08:39:49;;;;;;;1.10;1.10;;;23.60;86.10;;;;;;5043784;28;20185;-76
2022/06/11 08:42:35;;;;;;;1.50;1.27;;;23.70;86.00;;;;;;5041045;28;20222;-73
2022/06/11 08:45:12;;;;;;;1.40;1.40;;;23.90;83.90;;;;;;5039862;28;21046;-77
2022/06/11 08:47:43;;;;;;;1.15;1.15;;;24.00;83.60;;;;;;5035687;28;20443;-75
2022/06/11 08:50:14;;;;;;;1.10;1.10;;;24.00;83.60;;;;;;5038425;28;20241;-76
2022/06/11 08:52:40;;;;;;;1.27;1.20;;;24.10;83.00;;;;;;5035406;28;20183;-77
2022/06/11 08:55:07;;;;;;;1.33;1.33;;;24.20;83.40;;;;;;5039838;28;20204;-77
2022/06/11 08:57:51;;;;;;;1.27;1.27;;;24.20;83.00;;;;;;5040809;28;20270;-77
2022/06/11 09:00:25;;;;;;;1.23;1.23;;;24.20;82.80;;;;;;5043173;28;20182;-78
2022/06/11 09:03:09;;;;;;;1.40;1.40;;;24.40;83.40;;;;;;5042057;28;20188;-78
2022/06/11 09:06:02;;;;;;;1.40;1.35;;;24.50;82.60;;;;;;5040171;28;20195;-77
2022/06/11 09:08:46;;;;;;;1.73;1.73;;;24.50;82.40;;;;;;5041443;28;20539;-77
2022/06/11 09:11:47;;;;;;;2.33;1.90;;;24.60;82.10;;;;;;5039223;28;20202;-75
2022/06/11 09:14:49;;;;;;;1.45;1.45;;;24.80;80.80;;;;;;4977142;28;20225;-77
2022/06/11 09:17:31;;;;;;;1.60;1.50;;;24.90;80.30;;;;;;4969486;28;20190;-77
2022/06/11 09:20:21;;;;;;;1.83;1.80;;;25.00;80.30;;;;;;4972451;28;20194;-75
2022/06/11 09:22:46;;;;;;;1.80;1.80;;;25.00;78.70;;;;;;4961398;28;20586;-75
2022/06/11 09:25:42;;;;;;;1.60;1.60;;;25.00;78.60;;;;;;4975286;28;20201;-75
2022/06/11 09:28:20;;;;;;;2.38;1.48;;;25.10;77.30;;;;;;4976843;28;20251;-76
2022/06/11 09:31:05;;;;;;;1.05;1.05;;;25.10;78.20;;;;;;4974057;28;20177;-75
2022/06/11 09:33:40;;;;;;;1.33;1.25;;;25.20;78.00;;;;;;4967989;28;20768;-74
2022/06/11 09:36:17;;;;;;;1.60;1.60;;;25.30;78.70;;;;;;4971176;28;20185;-74
2022/06/11 09:38:52;;;;;;;1.52;1.52;;;25.40;77.50;;;;;;4964988;28;20651;-75
2022/06/11 09:41:34;;;;;;;1.67;1.67;;;25.50;76.80;;;;;;4978731;28;20213;-75
2022/06/11 09:44:14;;;;;;;1.42;1.42;;;25.60;76.50;;;;;;4980126;28;20232;-74
2022/06/11 09:47:11;;;;;;;2.25;1.35;;;25.70;77.50;;;;;;4962038;28;20541;-70
2022/06/11 09:49:39;;;;;;;1.23;1.23;;;25.90;78.00;;;;;;4977815;28;20283;-76
2022/06/11 09:52:26;;;;;;;3.50;1.65;;;26.00;77.20;;;;;;5031112;28;20224;-73
2022/06/11 09:54:58;;;;;;;2.22;2.13;;;26.10;76.10;;;;;;5042520;28;20213;-73
2022/06/11 09:57:28;;;;;;;1.60;1.50;;;26.10;76.30;;;;;;5042646;28;20408;-76
2022/06/11 10:00:04;;;;;;;1.70;1.60;;;26.10;75.30;;;;;;5042523;28;20186;-74
2022/06/11 10:05:26;;;;;;;1.30;1.30;;;26.00;74.10;;;;;;5043795;28;20191;-75
2022/06/11 10:07:58;;;;;;;1.20;1.20;;;25.90;75.90;;;;;;5044296;28;20674;-75
2022/06/11 10:10:31;;;;;;;1.20;1.20;;;25.90;74.50;;;;;;5044380;28;20594;-75
2022/06/11 10:13:05;;;;;;;1.85;1.00;;;25.80;74.90;;;;;;5039058;28;20571;-75
2022/06/11 10:15:38;;;;;;;0.90;0.90;;;25.80;74.90;;;;;;5038543;28;20186;-76
2022/06/11 10:18:43;;;;;;;0.98;0.98;;;25.70;73.30;;;;;;5044336;28;20256;-75
2022/06/11 10:21:13;;;;;;;1.05;1.05;;;25.50;74.60;;;;;;4981161;28;20186;-75
2022/06/11 10:24:01;;;;;;;1.40;1.40;;;25.30;75.40;;;;;;4981788;28;20726;-75
2022/06/11 10:26:32;;;;;;;1.65;1.35;;;25.10;76.40;;;;;;4982021;28;20285;-75
2022/06/11 10:29:10;;;;;;;1.15;1.13;;;25.00;77.50;;;;;;4982097;28;20193;-74
2022/06/11 10:31:51;;;;;;;1.13;1.13;;;24.90;77.60;;;;;;4981983;28;20698;-75
2022/06/11 10:34:23;;;;;;;1.35;1.35;;;24.80;77.80;;;;;;4975700;28;20270;-76
2022/06/11 10:36:57;;;;;;;1.17;1.17;;;24.60;77.50;;;;;;4965701;28;20224;-75
2022/06/11 10:39:53;;;;;;;0.77;0.77;;;24.40;78.30;;;;;;4976613;28;20238;-76
2022/06/11 10:42:25;;;;;;;1.02;1.02;;;24.20;78.80;;;;;;4984511;28;20189;-75
2022/06/11 10:44:54;;;;;;;1.00;1.00;;;23.60;79.50;;;;;;4985871;28;20201;-76
2022/06/11 10:47:38;;;;;;;1.10;1.00;;;23.60;79.50;;;;;;4985643;28;20208;-75
2022/06/11 10:50:09;;;;;;;0.95;0.95;;;23.30;80.70;;;;;;4980785;28;20341;-75
2022/06/11 10:52:47;;;;;;;1.10;1.10;;;23.00;81.50;;;;;;5026057;28;20195;-75
2022/06/11 10:55:22;;;;;;;1.40;1.40;;;22.70;83.00;;;;;;5047704;28;20633;-75
2022/06/11 10:57:52;;;;;;;1.50;1.42;;;22.40;84.10;;;;;;5046562;28;20284;-75
2022/06/11 11:00:26;;;;;;;0.95;0.95;;;22.30;84.10;;;;;;5045963;28;20180;-75
2022/06/11 11:03:04;;;;;;;0.80;0.80;;;22.20;84.00;;;;;;5047265;28;20184;-74
2022/06/11 11:06:12;;;;;;;1.27;1.25;;;22.10;84.20;;;;;;5041213;28;20194;-75
2022/06/11 11:08:52;;;;;;;0.95;0.95;;;22.00;85.20;;;;;;5001878;28;20217;-75
2022/06/11 11:11:17;;;;;;;1.17;1.13;;;21.90;85.50;;;;;;4998706;28;20212;-75
2022/06/11 11:13:46;;;;;;;0.85;0.85;;;22.00;85.60;;;;;;5004182;28;20308;-75
2022/06/11 11:16:19;;;;;;;1.95;1.05;;;21.90;84.90;;;;;;5003323;28;20188;-75
2022/06/11 11:19:02;;;;;;;0.70;0.70;;;21.80;85.40;;;;;;4987764;28;20223;-76
2022/06/11 11:21:34;;;;;;;1.42;0.95;;;21.90;84.80;;;;;;5002626;28;20185;-76
2022/06/11 11:24:29;;;;;;;2.85;1.20;;;21.90;85.60;;;;;;5003834;28;20213;-77
2022/06/11 11:27:16;;;;;;;0.80;0.80;;;21.90;85.10;;;;;;4999792;28;20251;-76
2022/06/11 11:29:52;;;;;;;0.82;0.82;;;21.80;86.00;;;;;;4986092;28;20185;-77
2022/06/11 11:32:45;;;;;;;1.10;1.10;;;22.00;86.40;;;;;;5001444;28;20197;-77
2022/06/11 11:35:36;;;;;;;1.67;1.17;;;22.00;85.90;;;;;;4992453;28;20233;-77
2022/06/11 11:38:11;;;;;;;1.50;1.40;;;22.20;86.50;;;;;;4999959;28;20279;-75
2022/06/11 11:40:50;;;;;;;1.25;1.25;;;22.30;86.00;;;;;;4996388;28;20264;-76
2022/06/11 11:43:17;;;;;;;1.10;1.10;;;22.20;84.60;;;;;;4999010;28;20197;-75
2022/06/11 11:45:59;;;;;;;1.30;1.30;;;22.40;85.70;;;;;;5020353;28;20222;-74
2022/06/11 11:48:35;;;;;;;1.42;1.33;;;22.60;84.40;;;;;;5041356;28;20841;-75
2022/06/11 11:51:18;;;;;;;1.15;1.10;;;22.70;84.30;;;;;;5041303;28;20686;-75
2022/06/11 11:53:48;;;;;;;3.03;1.65;;;22.80;85.00;;;;;;5043550;28;20302;-74
2022/06/11 11:56:27;;;;;;;1.35;1.35;;;23.00;85.40;;;;;;5041192;28;20187;-79
2022/06/11 11:58:57;;;;;;;1.20;1.20;;;23.30;83.70;;;;;;5044399;28;20286;-83
2022/06/11 12:01:26;;;;;;;1.13;1.13;;;23.40;82.90;;;;;;5046859;28;20279;-82
2022/06/11 12:04:01;;;;;;;0.93;0.93;;;23.50;83.00;;;;;;5045953;28;20194;-81
2022/06/11 12:06:37;;;;;;;0.90;0.90;;;23.50;82.90;;;;;;5041071;28;20191;-82
2022/06/11 12:09:21;;;;;;;1.00;1.00;;;23.60;82.40;;;;;;5042479;28;20230;-81
2022/06/11 12:12:12;;;;;;;1.17;1.17;;;23.50;81.90;;;;;;5044983;28;20186;-77
2022/06/11 12:14:47;;;;;;;0.80;0.80;;;23.50;81.50;;;;;;5041173;28;20231;-76
2022/06/11 12:17:43;;;;;;;0.90;0.90;;;23.40;81.30;;;;;;5043620;28;20194;-76
2022/06/11 12:20:21;;;;;;;0.70;0.70;;;23.20;82.00;;;;;;5015720;28;20246;-73
2022/06/11 12:23:03;;;;;;;0.80;0.80;;;23.10;81.70;;;;;;5013701;28;20249;-73
2022/06/11 12:25:38;;;;;;;2.35;1.02;;;23.00;82.70;;;;;;5001658;28;20265;-73
2022/06/11 12:28:04;;;;;;;0.90;0.90;;;22.90;83.70;;;;;;5016288;28;20759;-74
2022/06/11 12:30:30;;;;;;;1.30;1.20;;;22.90;83.60;;;;;;5017014;28;20837;-74
2022/06/11 12:32:57;;;;;;;1.00;1.00;;;22.90;83.90;;;;;;5015236;28;20197;-75
2022/06/11 12:35:28;;;;;;;0.70;0.70;;;22.80;83.80;;;;;;5016913;28;20235;-78
2022/06/11 12:38:07;;;;;;;0.80;0.80;;;22.80;83.60;;;;;;5018343;28;20298;-77
2022/06/11 12:40:51;;;;;;;0.65;0.65;;;22.70;83.30;;;;;;5016427;28;20283;-76
2022/06/11 12:43:47;;;;;;;0.65;0.65;;;22.70;83.40;;;;;;5014336;28;20188;-75
2022/06/11 12:46:27;;;;;;;0.70;0.70;;;22.70;83.40;;;;;;5016213;28;20180;-76
2022/06/11 12:48:58;;;;;;;0.63;0.63;;;22.60;83.90;;;;;;5018261;28;20180;-77
2022/06/11 12:52:05;;;;;;;0.85;0.70;;;22.60;84.70;;;;;;5018218;28;20720;-76
2022/06/11 12:54:33;;;;;;;0.70;0.70;;;22.60;84.90;;;;;;4996970;28;20216;-76
2022/06/11 12:57:18;;;;;;;0.90;0.90;;;22.70;84.30;;;;;;5016028;28;20188;-77
2022/06/11 13:00:11;;;;;;;0.80;0.80;;;22.70;84.80;;;;;;5041338;28;20263;-76
2022/06/11 13:02:55;;;;;;;0.73;0.73;;;22.70;84.50;;;;;;5043420;28;20187;-76
2022/06/11 13:05:56;;;;;;;0.90;0.90;;;22.80;83.70;;;;;;5044641;28;20219;-77
2022/06/11 13:08:32;;;;;;;2.50;0.80;;;22.80;84.10;;;;;;4978997;28;20867;-80
2022/06/11 13:11:15;;;;;;;0.88;0.88;;;22.70;84.20;;;;;;4981894;28;20846;-80
2022/06/11 13:13:53;;;;;;;1.23;0.77;;;22.70;84.00;;;;;;4978236;28;20240;-77
2022/06/11 13:16:37;;;;;;;0.80;0.80;;;22.60;84.40;;;;;;4980576;28;20197;-76
2022/06/11 13:19:17;;;;;;;0.98;0.98;;;22.60;85.00;;;;;;4974100;28;20233;-74
2022/06/11 13:22:01;;;;;;;2.05;1.00;;;22.60;84.50;;;;;;4978993;28;20915;-71
2022/06/11 13:24:54;;;;;;;0.85;0.85;;;22.70;84.80;;;;;;4980856;28;20691;-73
2022/06/11 13:27:25;;;;;;;1.02;1.02;;;22.70;85.30;;;;;;4981042;28;20193;-73
2022/06/11 13:30:15;;;;;;;0.85;0.85;;;22.80;85.30;;;;;;4980621;28;20358;-72
2022/06/11 13:32:55;;;;;;;1.13;1.13;;;22.90;84.90;;;;;;4975311;28;20280;-73
2022/06/11 13:35:30;;;;;;;0.80;0.80;;;22.90;84.30;;;;;;4980081;28;20264;-74
2022/06/11 13:38:19;;;;;;;0.80;0.80;;;23.00;84.60;;;;;;4981674;28;20181;-74